sensor_id;sensor_type;location;lat;lon;timestamp;P1;durP1;ratioP1;P2;durP2;ratioP2
60610;SDS011;46439;51.164;13.572;2024-03-23T00:53:17;15.00;;;8.90;;
60610;SDS011;46439;51.164;13.572;2024-03-23T00:55:45;14.60;;;9.20;;
60610;SDS011;46439;51.164;13.572;2024-03-23T00:58:13;12.70;;;9.00;;
60610;SDS011;46439;51.164;13.572;2024-03-23T01:00:41;15.20;;;9.10;;
60610;SDS011;46439;51.164;13.572;2024-03-23T01:03:09;14.20;;;9.00;;
60610;SDS011;46439;51.164;13.572;2024-03-23T01:05:37;14.40;;;8.70;;
60610;SDS011;46439;51.164;13.572;2024-03-23T01:08:06;14.60;;;8.90;;
60610;SDS011;46439;51.164;13.572;2024-03-23T01:10:34;12.00;;;8.40;;
60610;SDS011;46439;51.164;13.572;2024-03-23T01:13:02;13.90;;;9.00;;
60610;SDS011;46439;51.164;13.572;2024-03-23T01:15:30;13.00;;;9.10;;
60610;SDS011;46439;51.164;13.572;2024-03-23T01:17:58;16.80;;;9.10;;
60610;SDS011;46439;51.164;13.572;2024-03-23T01:20:26;13.60;;;8.90;;
60610;SDS011;46439;51.164;13.572;2024-03-23T01:22:54;14.50;;;9.30;;
60610;SDS011;46439;51.164;13.572;2024-03-23T01:25:22;14.30;;;10.10;;
60610;SDS011;46439;51.164;13.572;2024-03-23T01:27:50;15.50;;;9.90;;
60610;SDS011;46439;51.164;13.572;2024-03-23T01:30:18;14.00;;;9.40;;
60610;SDS011;46439;51.164;13.572;2024-03-23T01:32:46;15.80;;;9.70;;
60610;SDS011;46439;51.164;13.572;2024-03-23T01:35:14;15.80;;;10.00;;
60610;SDS011;46439;51.164;13.572;2024-03-23T01:37:42;13.60;;;9.70;;
60610;SDS011;46439;51.164;13.572;2024-03-23T01:40:11;13.70;;;9.90;;
60610;SDS011;46439;51.164;13.572;2024-03-23T01:42:40;14.10;;;9.80;;
60610;SDS011;46439;51.164;13.572;2024-03-23T01:45:09;16.60;;;10.40;;
60610;SDS011;46439;51.164;13.572;2024-03-23T01:47:37;14.50;;;10.10;;
60610;SDS011;46439;51.164;13.572;2024-03-23T01:50:06;14.60;;;9.90;;
60610;SDS011;46439;51.164;13.572;2024-03-23T01:55:04;15.00;;;10.20;;
60610;SDS011;46439;51.164;13.572;2024-03-23T01:57:33;14.30;;;10.10;;
60610;SDS011;46439;51.164;13.572;2024-03-23T02:00:01;15.30;;;10.20;;
60610;SDS011;46439;51.164;13.572;2024-03-23T02:02:30;14.70;;;10.50;;
60610;SDS011;46439;51.164;13.572;2024-03-23T02:04:58;15.30;;;10.50;;
60610;SDS011;46439;51.164;13.572;2024-03-23T02:07:26;18.10;;;11.90;;
60610;SDS011;46439;51.164;13.572;2024-03-23T02:09:54;17.30;;;11.80;;
60610;SDS011;46439;51.164;13.572;2024-03-23T02:12:22;15.90;;;11.40;;
60610;SDS011;46439;51.164;13.572;2024-03-23T02:14:50;18.10;;;11.70;;
60610;SDS011;46439;51.164;13.572;2024-03-23T02:17:18;20.50;;;11.90;;
60610;SDS011;46439;51.164;13.572;2024-03-23T02:19:46;17.80;;;12.90;;
60610;SDS011;46439;51.164;13.572;2024-03-23T02:22:14;22.90;;;13.70;;
60610;SDS011;46439;51.164;13.572;2024-03-23T02:24:42;18.60;;;13.00;;
60610;SDS011;46439;51.164;13.572;2024-03-23T02:27:10;21.60;;;13.90;;
60610;SDS011;46439;51.164;13.572;2024-03-23T02:29:38;19.70;;;14.00;;
60610;SDS011;46439;51.164;13.572;2024-03-23T02:32:07;19.60;;;13.90;;
60610;SDS011;46439;51.164;13.572;2024-03-23T02:34:38;21.80;;;13.90;;
60610;SDS011;46439;51.164;13.572;2024-03-23T02:37:11;21.60;;;14.60;;
60610;SDS011;46439;51.164;13.572;2024-03-23T02:39:39;22.60;;;15.30;;
60610;SDS011;46439;51.164;13.572;2024-03-23T02:42:07;22.60;;;15.20;;
60610;SDS011;46439;51.164;13.572;2024-03-23T02:44:35;21.50;;;15.50;;
60610;SDS011;46439;51.164;13.572;2024-03-23T02:47:03;21.30;;;14.60;;
60610;SDS011;46439;51.164;13.572;2024-03-23T02:49:32;20.90;;;14.60;;
60610;SDS011;46439;51.164;13.572;2024-03-23T02:52:00;20.60;;;14.10;;
60610;SDS011;46439;51.164;13.572;2024-03-23T02:54:28;21.90;;;14.90;;
60610;SDS011;46439;51.164;13.572;2024-03-23T02:56:56;21.10;;;14.60;;
60610;SDS011;46439;51.164;13.572;2024-03-23T02:59:24;22.40;;;14.80;;
60610;SDS011;46439;51.164;13.572;2024-03-23T03:01:52;22.60;;;15.30;;
60610;SDS011;46439;51.164;13.572;2024-03-23T03:04:20;24.10;;;15.30;;
60610;SDS011;46439;51.164;13.572;2024-03-23T03:06:48;24.40;;;15.60;;
60610;SDS011;46439;51.164;13.572;2024-03-23T03:09:16;26.30;;;16.50;;
60610;SDS011;46439;51.164;13.572;2024-03-23T03:11:44;23.80;;;15.00;;
60610;SDS011;46439;51.164;13.572;2024-03-23T03:14:12;21.70;;;15.00;;
60610;SDS011;46439;51.164;13.572;2024-03-23T03:16:40;20.00;;;14.60;;
60610;SDS011;46439;51.164;13.572;2024-03-23T03:19:08;26.40;;;16.40;;
60610;SDS011;46439;51.164;13.572;2024-03-23T03:21:37;22.00;;;14.80;;
60610;SDS011;46439;51.164;13.572;2024-03-23T03:24:05;22.30;;;14.60;;
60610;SDS011;46439;51.164;13.572;2024-03-23T03:26:34;23.50;;;15.80;;
60610;SDS011;46439;51.164;13.572;2024-03-23T03:29:02;26.20;;;16.10;;
60610;SDS011;46439;51.164;13.572;2024-03-23T03:31:30;23.10;;;15.30;;
60610;SDS011;46439;51.164;13.572;2024-03-23T03:33:58;27.70;;;16.30;;
60610;SDS011;46439;51.164;13.572;2024-03-23T03:36:26;22.60;;;16.00;;
60610;SDS011;46439;51.164;13.572;2024-03-23T03:38:55;24.80;;;17.80;;
60610;SDS011;46439;51.164;13.572;2024-03-23T03:41:23;29.00;;;18.30;;
60610;SDS011;46439;51.164;13.572;2024-03-23T03:43:51;24.20;;;16.80;;
60610;SDS011;46439;51.164;13.572;2024-03-23T03:46:19;24.90;;;17.10;;
60610;SDS011;46439;51.164;13.572;2024-03-23T03:48:47;28.70;;;17.80;;
60610;SDS011;46439;51.164;13.572;2024-03-23T03:51:15;25.00;;;17.30;;
60610;SDS011;46439;51.164;13.572;2024-03-23T03:53:43;28.40;;;18.10;;
60610;SDS011;46439;51.164;13.572;2024-03-23T03:56:11;25.80;;;17.30;;
60610;SDS011;46439;51.164;13.572;2024-03-23T03:58:39;25.70;;;17.90;;
60610;SDS011;46439;51.164;13.572;2024-03-23T04:01:07;24.30;;;17.40;;
60610;SDS011;46439;51.164;13.572;2024-03-23T04:03:35;30.20;;;19.50;;
60610;SDS011;46439;51.164;13.572;2024-03-23T04:06:03;28.30;;;18.20;;
60610;SDS011;46439;51.164;13.572;2024-03-23T04:08:31;28.60;;;18.50;;
60610;SDS011;46439;51.164;13.572;2024-03-23T04:10:59;24.30;;;17.60;;
60610;SDS011;46439;51.164;13.572;2024-03-23T04:13:27;28.90;;;18.70;;
60610;SDS011;46439;51.164;13.572;2024-03-23T04:15:55;26.40;;;17.30;;
60610;SDS011;46439;51.164;13.572;2024-03-23T04:18:23;26.10;;;18.10;;
60610;SDS011;46439;51.164;13.572;2024-03-23T04:20:51;25.30;;;16.90;;
60610;SDS011;46439;51.164;13.572;2024-03-23T04:23:19;29.60;;;20.10;;
60610;SDS011;46439;51.164;13.572;2024-03-23T04:25:47;27.70;;;19.20;;
60610;SDS011;46439;51.164;13.572;2024-03-23T04:28:15;26.80;;;18.10;;
60610;SDS011;46439;51.164;13.572;2024-03-23T04:30:43;25.90;;;18.10;;
60610;SDS011;46439;51.164;13.572;2024-03-23T04:33:11;28.50;;;19.00;;
60610;SDS011;46439;51.164;13.572;2024-03-23T04:35:39;28.90;;;18.70;;
60610;SDS011;46439;51.164;13.572;2024-03-23T04:38:07;26.80;;;18.20;;
60610;SDS011;46439;51.164;13.572;2024-03-23T04:40:35;30.40;;;19.60;;
60610;SDS011;46439;51.164;13.572;2024-03-23T04:43:03;25.50;;;18.50;;
60610;SDS011;46439;51.164;13.572;2024-03-23T04:45:31;31.00;;;18.20;;
60610;SDS011;46439;51.164;13.572;2024-03-23T04:47:59;27.00;;;18.30;;
60610;SDS011;46439;51.164;13.572;2024-03-23T04:50:27;27.10;;;18.60;;
60610;SDS011;46439;51.164;13.572;2024-03-23T04:53:01;27.40;;;18.60;;
60610;SDS011;46439;51.164;13.572;2024-03-23T04:55:33;24.60;;;18.30;;
60610;SDS011;46439;51.164;13.572;2024-03-23T04:58:02;26.50;;;17.50;;
60610;SDS011;46439;51.164;13.572;2024-03-23T05:00:31;26.30;;;18.90;;
60610;SDS011;46439;51.164;13.572;2024-03-23T05:03:00;27.10;;;18.90;;
60610;SDS011;46439;51.164;13.572;2024-03-23T05:05:35;28.10;;;18.70;;
60610;SDS011;46439;51.164;13.572;2024-03-23T05:08:04;28.20;;;18.70;;
60610;SDS011;46439;51.164;13.572;2024-03-23T05:13:24;28.30;;;19.50;;
60610;SDS011;46439;51.164;13.572;2024-03-23T05:15:54;26.90;;;19.20;;
60610;SDS011;46439;51.164;13.572;2024-03-23T05:18:29;27.00;;;19.40;;
60610;SDS011;46439;51.164;13.572;2024-03-23T05:21:04;29.40;;;19.90;;
60610;SDS011;46439;51.164;13.572;2024-03-23T05:23:32;28.30;;;19.10;;
60610;SDS011;46439;51.164;13.572;2024-03-23T05:26:00;29.00;;;18.80;;
60610;SDS011;46439;51.164;13.572;2024-03-23T05:28:31;29.30;;;19.30;;
60610;SDS011;46439;51.164;13.572;2024-03-23T05:31:02;27.60;;;18.70;;
60610;SDS011;46439;51.164;13.572;2024-03-23T05:33:45;29.10;;;18.80;;
60610;SDS011;46439;51.164;13.572;2024-03-23T05:36:39;32.80;;;19.50;;
60610;SDS011;46439;51.164;13.572;2024-03-23T05:39:12;27.30;;;18.80;;
60610;SDS011;46439;51.164;13.572;2024-03-23T05:41:48;27.90;;;19.20;;
60610;SDS011;46439;51.164;13.572;2024-03-23T05:44:30;30.30;;;19.40;;
60610;SDS011;46439;51.164;13.572;2024-03-23T05:47:02;27.80;;;19.50;;
60610;SDS011;46439;51.164;13.572;2024-03-23T05:49:34;31.30;;;20.10;;
60610;SDS011;46439;51.164;13.572;2024-03-23T05:52:06;28.50;;;18.70;;
60610;SDS011;46439;51.164;13.572;2024-03-23T05:54:36;27.90;;;19.60;;
60610;SDS011;46439;51.164;13.572;2024-03-23T05:57:16;28.00;;;19.50;;
60610;SDS011;46439;51.164;13.572;2024-03-23T05:59:49;28.80;;;19.60;;
60610;SDS011;46439;51.164;13.572;2024-03-23T06:02:26;29.80;;;19.10;;
60610;SDS011;46439;51.164;13.572;2024-03-23T06:05:14;29.60;;;19.80;;
60610;SDS011;46439;51.164;13.572;2024-03-23T06:07:46;29.00;;;19.50;;
60610;SDS011;46439;51.164;13.572;2024-03-23T06:10:16;28.60;;;19.60;;
60610;SDS011;46439;51.164;13.572;2024-03-23T06:12:58;28.10;;;19.90;;
60610;SDS011;46439;51.164;13.572;2024-03-23T06:15:38;29.80;;;20.10;;
60610;SDS011;46439;51.164;13.572;2024-03-23T06:18:06;30.00;;;21.30;;
60610;SDS011;46439;51.164;13.572;2024-03-23T06:20:34;32.80;;;22.30;;
60610;SDS011;46439;51.164;13.572;2024-03-23T06:23:09;34.10;;;21.60;;
60610;SDS011;46439;51.164;13.572;2024-03-23T06:25:48;31.50;;;22.20;;
60610;SDS011;46439;51.164;13.572;2024-03-23T06:28:16;33.90;;;21.80;;
60610;SDS011;46439;51.164;13.572;2024-03-23T06:30:54;32.70;;;22.00;;
60610;SDS011;46439;51.164;13.572;2024-03-23T06:33:49;31.30;;;21.20;;
60610;SDS011;46439;51.164;13.572;2024-03-23T06:36:35;35.00;;;21.30;;
60610;SDS011;46439;51.164;13.572;2024-03-23T06:39:04;32.50;;;21.60;;
60610;SDS011;46439;51.164;13.572;2024-03-23T06:41:32;35.70;;;21.40;;
60610;SDS011;46439;51.164;13.572;2024-03-23T06:44:01;32.50;;;22.30;;
60610;SDS011;46439;51.164;13.572;2024-03-23T06:46:32;30.30;;;22.10;;
60610;SDS011;46439;51.164;13.572;2024-03-23T06:49:03;31.90;;;21.40;;
60610;SDS011;46439;51.164;13.572;2024-03-23T06:51:40;32.90;;;22.00;;
60610;SDS011;46439;51.164;13.572;2024-03-23T06:54:16;29.40;;;20.90;;
60610;SDS011;46439;51.164;13.572;2024-03-23T06:56:52;30.50;;;20.90;;
60610;SDS011;46439;51.164;13.572;2024-03-23T06:59:20;32.30;;;21.20;;
60610;SDS011;46439;51.164;13.572;2024-03-23T07:01:49;33.70;;;20.20;;
60610;SDS011;46439;51.164;13.572;2024-03-23T07:04:26;33.40;;;22.20;;
60610;SDS011;46439;51.164;13.572;2024-03-23T07:06:54;31.90;;;21.00;;
60610;SDS011;46439;51.164;13.572;2024-03-23T07:09:28;31.50;;;21.40;;
60610;SDS011;46439;51.164;13.572;2024-03-23T07:12:01;32.20;;;21.30;;
60610;SDS011;46439;51.164;13.572;2024-03-23T07:14:31;32.40;;;21.80;;
60610;SDS011;46439;51.164;13.572;2024-03-23T07:17:08;33.10;;;22.00;;
60610;SDS011;46439;51.164;13.572;2024-03-23T07:19:49;32.70;;;22.00;;
60610;SDS011;46439;51.164;13.572;2024-03-23T07:22:17;30.30;;;22.10;;
60610;SDS011;46439;51.164;13.572;2024-03-23T07:24:45;29.10;;;20.60;;
60610;SDS011;46439;51.164;13.572;2024-03-23T07:27:14;32.50;;;21.50;;
60610;SDS011;46439;51.164;13.572;2024-03-23T07:29:51;31.20;;;22.20;;
60610;SDS011;46439;51.164;13.572;2024-03-23T07:32:26;29.50;;;21.20;;
60610;SDS011;46439;51.164;13.572;2024-03-23T07:35:01;33.70;;;21.60;;
60610;SDS011;46439;51.164;13.572;2024-03-23T07:37:46;32.60;;;22.70;;
60610;SDS011;46439;51.164;13.572;2024-03-23T07:40:18;31.10;;;21.50;;
60610;SDS011;46439;51.164;13.572;2024-03-23T07:42:46;34.30;;;22.30;;
60610;SDS011;46439;51.164;13.572;2024-03-23T07:45:15;34.60;;;23.10;;
60610;SDS011;46439;51.164;13.572;2024-03-23T07:47:43;33.70;;;21.60;;
60610;SDS011;46439;51.164;13.572;2024-03-23T07:50:12;34.90;;;22.00;;
60610;SDS011;46439;51.164;13.572;2024-03-23T07:52:44;29.50;;;20.10;;
60610;SDS011;46439;51.164;13.572;2024-03-23T07:55:25;30.10;;;21.20;;
60610;SDS011;46439;51.164;13.572;2024-03-23T07:58:00;30.60;;;21.00;;
60610;SDS011;46439;51.164;13.572;2024-03-23T08:00:34;30.90;;;20.90;;
60610;SDS011;46439;51.164;13.572;2024-03-23T08:03:10;29.40;;;20.50;;
60610;SDS011;46439;51.164;13.572;2024-03-23T08:05:52;30.50;;;21.10;;
60610;SDS011;46439;51.164;13.572;2024-03-23T08:08:34;30.00;;;20.80;;
60610;SDS011;46439;51.164;13.572;2024-03-23T08:11:15;28.30;;;19.00;;
60610;SDS011;46439;51.164;13.572;2024-03-23T08:13:56;29.80;;;20.50;;
60610;SDS011;46439;51.164;13.572;2024-03-23T08:16:32;30.00;;;19.70;;
60610;SDS011;46439;51.164;13.572;2024-03-23T08:19:06;31.10;;;20.70;;
60610;SDS011;46439;51.164;13.572;2024-03-23T08:21:49;30.90;;;21.30;;
60610;SDS011;46439;51.164;13.572;2024-03-23T08:24:22;27.40;;;20.80;;
60610;SDS011;46439;51.164;13.572;2024-03-23T08:26:55;29.80;;;20.50;;
60610;SDS011;46439;51.164;13.572;2024-03-23T08:29:33;29.10;;;19.90;;
60610;SDS011;46439;51.164;13.572;2024-03-23T08:32:05;29.90;;;20.80;;
60610;SDS011;46439;51.164;13.572;2024-03-23T08:34:34;28.90;;;20.60;;
60610;SDS011;46439;51.164;13.572;2024-03-23T08:37:06;31.20;;;20.40;;
60610;SDS011;46439;51.164;13.572;2024-03-23T08:39:44;30.00;;;20.20;;
60610;SDS011;46439;51.164;13.572;2024-03-23T08:42:17;28.90;;;19.90;;
60610;SDS011;46439;51.164;13.572;2024-03-23T08:44:53;28.60;;;20.00;;
60610;SDS011;46439;51.164;13.572;2024-03-23T08:47:28;28.10;;;18.80;;
60610;SDS011;46439;51.164;13.572;2024-03-23T08:50:02;28.30;;;18.90;;
60610;SDS011;46439;51.164;13.572;2024-03-23T08:52:34;27.00;;;18.40;;
60610;SDS011;46439;51.164;13.572;2024-03-23T08:55:04;25.50;;;18.40;;
60610;SDS011;46439;51.164;13.572;2024-03-23T08:57:51;27.80;;;19.00;;
60610;SDS011;46439;51.164;13.572;2024-03-23T09:00:27;26.70;;;17.00;;
60610;SDS011;46439;51.164;13.572;2024-03-23T09:02:59;26.70;;;18.60;;
60610;SDS011;46439;51.164;13.572;2024-03-23T09:05:33;25.60;;;17.50;;
60610;SDS011;46439;51.164;13.572;2024-03-23T09:08:13;23.40;;;16.10;;
60610;SDS011;46439;51.164;13.572;2024-03-23T09:10:48;25.00;;;17.10;;
60610;SDS011;46439;51.164;13.572;2024-03-23T09:13:18;23.90;;;16.90;;
60610;SDS011;46439;51.164;13.572;2024-03-23T09:15:51;21.20;;;15.30;;
60610;SDS011;46439;51.164;13.572;2024-03-23T09:18:23;22.50;;;15.50;;
60610;SDS011;46439;51.164;13.572;2024-03-23T09:20:51;19.50;;;13.50;;
60610;SDS011;46439;51.164;13.572;2024-03-23T09:23:24;19.10;;;13.80;;
60610;SDS011;46439;51.164;13.572;2024-03-23T09:25:58;18.40;;;12.80;;
60610;SDS011;46439;51.164;13.572;2024-03-23T09:28:49;19.40;;;13.20;;
60610;SDS011;46439;51.164;13.572;2024-03-23T09:31:18;20.40;;;12.80;;
60610;SDS011;46439;51.164;13.572;2024-03-23T09:33:46;15.30;;;8.50;;
60610;SDS011;46439;51.164;13.572;2024-03-23T09:36:27;11.60;;;5.70;;
60610;SDS011;46439;51.164;13.572;2024-03-23T09:38:58;9.20;;;3.80;;
60610;SDS011;46439;51.164;13.572;2024-03-23T09:41:34;7.10;;;2.90;;
60610;SDS011;46439;51.164;13.572;2024-03-23T09:44:09;4.90;;;2.20;;
60610;SDS011;46439;51.164;13.572;2024-03-23T09:46:38;6.00;;;2.00;;
60610;SDS011;46439;51.164;13.572;2024-03-23T09:49:11;4.80;;;1.90;;
60610;SDS011;46439;51.164;13.572;2024-03-23T09:51:43;6.80;;;2.30;;
60610;SDS011;46439;51.164;13.572;2024-03-23T09:54:24;8.40;;;2.50;;
60610;SDS011;46439;51.164;13.572;2024-03-23T09:56:52;4.40;;;2.00;;
60610;SDS011;46439;51.164;13.572;2024-03-23T09:59:20;2.00;;;1.40;;
60610;SDS011;46439;51.164;13.572;2024-03-23T10:01:52;1.30;;;0.80;;
60610;SDS011;46439;51.164;13.572;2024-03-23T10:04:37;1.90;;;0.90;;
60610;SDS011;46439;51.164;13.572;2024-03-23T10:07:12;1.80;;;1.00;;
60610;SDS011;46439;51.164;13.572;2024-03-23T10:09:46;1.00;;;0.80;;
60610;SDS011;46439;51.164;13.572;2024-03-23T10:12:22;0.70;;;0.70;;
60610;SDS011;46439;51.164;13.572;2024-03-23T10:14:53;1.30;;;0.90;;
60610;SDS011;46439;51.164;13.572;2024-03-23T10:17:25;0.90;;;0.90;;
60610;SDS011;46439;51.164;13.572;2024-03-23T10:19:57;1.70;;;1.00;;
60610;SDS011;46439;51.164;13.572;2024-03-23T10:22:29;0.50;;;0.40;;
60610;SDS011;46439;51.164;13.572;2024-03-23T10:25:11;0.90;;;0.60;;
60610;SDS011;46439;51.164;13.572;2024-03-23T10:27:44;1.10;;;0.60;;
60610;SDS011;46439;51.164;13.572;2024-03-23T10:30:35;0.80;;;0.80;;
60610;SDS011;46439;51.164;13.572;2024-03-23T10:33:19;1.20;;;0.90;;
60610;SDS011;46439;51.164;13.572;2024-03-23T10:35:48;0.60;;;0.60;;
60610;SDS011;46439;51.164;13.572;2024-03-23T10:38:20;0.50;;;0.50;;
60610;SDS011;46439;51.164;13.572;2024-03-23T10:40:56;0.60;;;0.60;;
60610;SDS011;46439;51.164;13.572;2024-03-23T10:43:25;0.80;;;0.60;;
60610;SDS011;46439;51.164;13.572;2024-03-23T10:45:53;1.50;;;0.80;;
60610;SDS011;46439;51.164;13.572;2024-03-23T10:48:23;0.50;;;0.50;;
60610;SDS011;46439;51.164;13.572;2024-03-23T10:51:08;0.60;;;0.60;;
60610;SDS011;46439;51.164;13.572;2024-03-23T10:53:40;0.60;;;0.60;;
60610;SDS011;46439;51.164;13.572;2024-03-23T10:56:11;0.80;;;0.60;;
60610;SDS011;46439;51.164;13.572;2024-03-23T10:58:52;1.20;;;0.60;;
60610;SDS011;46439;51.164;13.572;2024-03-23T11:01:30;0.80;;;0.80;;
60610;SDS011;46439;51.164;13.572;2024-03-23T11:04:31;0.60;;;0.60;;
60610;SDS011;46439;51.164;13.572;2024-03-23T11:07:04;0.80;;;0.80;;
60610;SDS011;46439;51.164;13.572;2024-03-23T11:10:02;1.00;;;0.90;;
60610;SDS011;46439;51.164;13.572;2024-03-23T11:12:57;1.90;;;1.00;;
60610;SDS011;46439;51.164;13.572;2024-03-23T11:15:46;1.80;;;0.70;;
60610;SDS011;46439;51.164;13.572;2024-03-23T11:18:20;0.60;;;0.60;;
60610;SDS011;46439;51.164;13.572;2024-03-23T11:20:51;0.90;;;0.90;;
60610;SDS011;46439;51.164;13.572;2024-03-23T11:23:28;1.50;;;1.20;;
60610;SDS011;46439;51.164;13.572;2024-03-23T11:25:58;3.20;;;2.00;;
60610;SDS011;46439;51.164;13.572;2024-03-23T11:28:33;0.90;;;0.90;;
60610;SDS011;46439;51.164;13.572;2024-03-23T11:31:10;1.40;;;1.10;;
60610;SDS011;46439;51.164;13.572;2024-03-23T11:33:38;1.10;;;1.10;;
60610;SDS011;46439;51.164;13.572;2024-03-23T11:36:11;2.60;;;0.70;;
60610;SDS011;46439;51.164;13.572;2024-03-23T11:38:55;0.80;;;0.80;;
60610;SDS011;46439;51.164;13.572;2024-03-23T11:41:47;0.50;;;0.50;;
60610;SDS011;46439;51.164;13.572;2024-03-23T11:44:19;0.80;;;0.80;;
60610;SDS011;46439;51.164;13.572;2024-03-23T11:46:56;0.90;;;0.80;;
60610;SDS011;46439;51.164;13.572;2024-03-23T11:49:49;1.20;;;0.90;;
60610;SDS011;46439;51.164;13.572;2024-03-23T11:52:22;1.90;;;0.90;;
60610;SDS011;46439;51.164;13.572;2024-03-23T11:54:52;0.80;;;0.80;;
60610;SDS011;46439;51.164;13.572;2024-03-23T11:57:39;0.80;;;0.80;;
60610;SDS011;46439;51.164;13.572;2024-03-23T12:03:01;0.60;;;0.50;;
60610;SDS011;46439;51.164;13.572;2024-03-23T12:05:31;0.80;;;0.80;;
60610;SDS011;46439;51.164;13.572;2024-03-23T12:08:23;0.90;;;0.90;;
60610;SDS011;46439;51.164;13.572;2024-03-23T12:11:15;0.90;;;0.80;;
60610;SDS011;46439;51.164;13.572;2024-03-23T12:13:50;0.80;;;0.80;;
60610;SDS011;46439;51.164;13.572;2024-03-23T12:16:18;0.60;;;0.60;;
60610;SDS011;46439;51.164;13.572;2024-03-23T12:18:51;0.90;;;0.90;;
60610;SDS011;46439;51.164;13.572;2024-03-23T12:21:34;0.80;;;0.80;;
60610;SDS011;46439;51.164;13.572;2024-03-23T12:24:01;0.90;;;0.90;;
60610;SDS011;46439;51.164;13.572;2024-03-23T12:26:30;0.70;;;0.70;;
60610;SDS011;46439;51.164;13.572;2024-03-23T12:28:58;2.40;;;1.00;;
60610;SDS011;46439;51.164;13.572;2024-03-23T12:31:28;0.70;;;0.70;;
60610;SDS011;46439;51.164;13.572;2024-03-23T12:36:28;1.30;;;1.20;;
60610;SDS011;46439;51.164;13.572;2024-03-23T12:38:56;1.30;;;1.20;;
60610;SDS011;46439;51.164;13.572;2024-03-23T12:41:24;4.00;;;3.20;;
60610;SDS011;46439;51.164;13.572;2024-03-23T12:43:52;7.30;;;5.30;;
60610;SDS011;46439;51.164;13.572;2024-03-23T12:46:20;3.90;;;3.10;;
60610;SDS011;46439;51.164;13.572;2024-03-23T12:48:51;3.30;;;2.30;;
60610;SDS011;46439;51.164;13.572;2024-03-23T12:51:21;1.70;;;1.60;;
60610;SDS011;46439;51.164;13.572;2024-03-23T12:53:57;2.10;;;1.90;;
60610;SDS011;46439;51.164;13.572;2024-03-23T12:56:27;1.80;;;1.70;;
60610;SDS011;46439;51.164;13.572;2024-03-23T12:58:56;2.00;;;1.80;;
60610;SDS011;46439;51.164;13.572;2024-03-23T13:01:27;1.80;;;1.70;;
60610;SDS011;46439;51.164;13.572;2024-03-23T13:03:57;1.80;;;1.70;;
60610;SDS011;46439;51.164;13.572;2024-03-23T13:06:29;1.90;;;1.70;;
60610;SDS011;46439;51.164;13.572;2024-03-23T13:09:07;3.70;;;1.80;;
60610;SDS011;46439;51.164;13.572;2024-03-23T13:11:51;1.60;;;1.40;;
60610;SDS011;46439;51.164;13.572;2024-03-23T13:14:30;1.90;;;1.70;;
60610;SDS011;46439;51.164;13.572;2024-03-23T13:17:00;2.30;;;1.50;;
60610;SDS011;46439;51.164;13.572;2024-03-23T13:19:32;4.80;;;1.40;;
60610;SDS011;46439;51.164;13.572;2024-03-23T13:22:10;3.40;;;1.40;;
60610;SDS011;46439;51.164;13.572;2024-03-23T13:24:42;2.40;;;1.50;;
60610;SDS011;46439;51.164;13.572;2024-03-23T13:27:18;4.10;;;1.60;;
60610;SDS011;46439;51.164;13.572;2024-03-23T13:29:51;3.90;;;1.70;;
60610;SDS011;46439;51.164;13.572;2024-03-23T13:32:24;3.30;;;1.70;;
60610;SDS011;46439;51.164;13.572;2024-03-23T13:34:53;5.00;;;2.10;;
60610;SDS011;46439;51.164;13.572;2024-03-23T13:37:25;3.80;;;1.90;;
60610;SDS011;46439;51.164;13.572;2024-03-23T13:39:57;3.60;;;1.90;;
60610;SDS011;46439;51.164;13.572;2024-03-23T13:42:27;3.90;;;2.10;;
60610;SDS011;46439;51.164;13.572;2024-03-23T13:45:00;4.70;;;1.90;;
60610;SDS011;46439;51.164;13.572;2024-03-23T13:47:34;2.40;;;1.40;;
60610;SDS011;46439;51.164;13.572;2024-03-23T13:50:08;4.30;;;1.80;;
60610;SDS011;46439;51.164;13.572;2024-03-23T13:52:38;3.60;;;1.60;;
60610;SDS011;46439;51.164;13.572;2024-03-23T13:55:08;5.80;;;1.50;;
60610;SDS011;46439;51.164;13.572;2024-03-23T13:57:39;4.30;;;1.70;;
60610;SDS011;46439;51.164;13.572;2024-03-23T14:00:16;4.10;;;1.70;;
60610;SDS011;46439;51.164;13.572;2024-03-23T14:03:04;5.60;;;1.80;;
60610;SDS011;46439;51.164;13.572;2024-03-23T14:05:42;8.90;;;2.10;;
60610;SDS011;46439;51.164;13.572;2024-03-23T14:08:19;5.60;;;1.70;;
60610;SDS011;46439;51.164;13.572;2024-03-23T14:10:56;4.10;;;1.60;;
60610;SDS011;46439;51.164;13.572;2024-03-23T14:13:30;3.30;;;1.40;;
60610;SDS011;46439;51.164;13.572;2024-03-23T14:16:01;4.00;;;1.80;;
60610;SDS011;46439;51.164;13.572;2024-03-23T14:18:33;6.20;;;2.20;;
60610;SDS011;46439;51.164;13.572;2024-03-23T14:21:03;6.10;;;2.20;;
60610;SDS011;46439;51.164;13.572;2024-03-23T14:23:50;3.00;;;1.70;;
60610;SDS011;46439;51.164;13.572;2024-03-23T14:26:25;8.20;;;2.80;;
60610;SDS011;46439;51.164;13.572;2024-03-23T14:28:59;8.30;;;2.80;;
60610;SDS011;46439;51.164;13.572;2024-03-23T14:31:34;7.80;;;2.30;;
60610;SDS011;46439;51.164;13.572;2024-03-23T14:34:25;4.70;;;2.00;;
60610;SDS011;46439;51.164;13.572;2024-03-23T14:37:04;7.50;;;3.20;;
60610;SDS011;46439;51.164;13.572;2024-03-23T14:39:34;8.60;;;3.90;;
60610;SDS011;46439;51.164;13.572;2024-03-23T14:44:38;6.10;;;2.10;;
60610;SDS011;46439;51.164;13.572;2024-03-23T14:47:06;9.50;;;3.70;;
60610;SDS011;46439;51.164;13.572;2024-03-23T14:49:35;6.90;;;2.20;;
60610;SDS011;46439;51.164;13.572;2024-03-23T14:52:04;4.00;;;1.70;;
60610;SDS011;46439;51.164;13.572;2024-03-23T14:54:33;8.40;;;2.10;;
60610;SDS011;46439;51.164;13.572;2024-03-23T14:57:04;3.00;;;1.80;;
60610;SDS011;46439;51.164;13.572;2024-03-23T14:59:58;5.60;;;1.90;;
60610;SDS011;46439;51.164;13.572;2024-03-23T15:02:31;4.30;;;1.80;;
60610;SDS011;46439;51.164;13.572;2024-03-23T15:05:04;6.90;;;2.00;;
60610;SDS011;46439;51.164;13.572;2024-03-23T15:07:41;4.80;;;1.80;;
60610;SDS011;46439;51.164;13.572;2024-03-23T15:13:08;3.20;;;1.60;;
60610;SDS011;46439;51.164;13.572;2024-03-23T15:15:40;5.80;;;2.20;;
60610;SDS011;46439;51.164;13.572;2024-03-23T15:18:34;5.30;;;2.00;;
60610;SDS011;46439;51.164;13.572;2024-03-23T15:21:30;15.40;;;9.60;;
60610;SDS011;46439;51.164;13.572;2024-03-23T15:24:19;10.90;;;5.00;;
60610;SDS011;46439;51.164;13.572;2024-03-23T15:26:55;8.70;;;3.90;;
60610;SDS011;46439;51.164;13.572;2024-03-23T15:29:51;16.00;;;7.20;;
60610;SDS011;46439;51.164;13.572;2024-03-23T15:32:27;21.70;;;11.90;;
60610;SDS011;46439;51.164;13.572;2024-03-23T15:35:00;19.80;;;10.80;;
60610;SDS011;46439;51.164;13.572;2024-03-23T15:37:37;13.90;;;7.40;;
60610;SDS011;46439;51.164;13.572;2024-03-23T15:40:15;4.80;;;2.50;;
60610;SDS011;46439;51.164;13.572;2024-03-23T15:42:50;4.50;;;2.00;;
60610;SDS011;46439;51.164;13.572;2024-03-23T15:45:29;4.90;;;2.80;;
60610;SDS011;46439;51.164;13.572;2024-03-23T15:48:06;3.80;;;2.50;;
60610;SDS011;46439;51.164;13.572;2024-03-23T15:50:49;5.70;;;2.90;;
60610;SDS011;46439;51.164;13.572;2024-03-23T15:53:24;8.70;;;2.90;;
60610;SDS011;46439;51.164;13.572;2024-03-23T15:56:02;7.50;;;3.70;;
60610;SDS011;46439;51.164;13.572;2024-03-23T15:58:41;10.60;;;4.40;;
60610;SDS011;46439;51.164;13.572;2024-03-23T16:01:19;7.90;;;3.40;;
60610;SDS011;46439;51.164;13.572;2024-03-23T16:04:00;6.20;;;2.90;;